^^
Daily Summary for May 31, 2021 Units:  English    Metric   Both
Daily Weekly Monthly Yearly Custom
  High: Low: Average:
Temperature: 102.0 °F 65.0 °F 80.6 °F
Dew Point: 52.0 °F 36.0 °F 45.5 °F
Humidity: 50% 13% 32%
Wind Speed: 16mph 0mph 3.2mph
Wind Gust: 16mph - -
Wind- - SSW
Pressure: 30.0 in 29.9 in -
Precipitation: 0.000 in    
Historical Graphs
 
 
Tabular Data for May 31, 2021
Time Temperature Dew Point Pressure Wind Wind Speed Wind Gust Humidity Rainfall Rate (Hourly) solar
00:04 69.0 °F 48.0 °F 29.9 in Calm     47% 0.000 in 0.00 W/m2
00:09 69.0 °F 49.0 °F 29.9 in Calm     49% 0.000 in 0.00 W/m2
00:14 69.0 °F 49.0 °F 29.9 in Calm     49% 0.000 in 0.00 W/m2
00:19 68.0 °F 49.0 °F 29.9 in Calm     50% 0.000 in 0.00 W/m2
00:24 68.0 °F 48.0 °F 29.9 in Calm     49% 0.000 in 0.00 W/m2
00:29 68.0 °F 48.0 °F 29.9 in Calm     49% 0.000 in 0.00 W/m2
00:34 68.0 °F 49.0 °F 29.9 in Calm     50% 0.000 in 0.00 W/m2
00:39 68.0 °F 48.0 °F 29.9 in Calm     49% 0.000 in 0.00 W/m2
00:44 68.0 °F 47.0 °F 29.9 in Calm     48% 0.000 in 0.00 W/m2
00:49 67.0 °F 47.0 °F 29.9 in Calm     48% 0.000 in 0.00 W/m2
00:54 67.0 °F 47.0 °F 29.9 in Calm     49% 0.000 in 0.00 W/m2
00:59 67.0 °F 47.0 °F 29.9 in Calm     49% 0.000 in 0.00 W/m2
01:04 67.0 °F 47.0 °F 29.9 in Calm     48% 0.000 in 0.00 W/m2
01:09 67.0 °F 47.0 °F 29.9 in Calm     48% 0.000 in 0.00 W/m2
01:14 67.0 °F 47.0 °F 29.9 in SW 2 mph 2 mph 49% 0.000 in 0.00 W/m2
01:19 67.0 °F 47.0 °F 29.9 in Calm     49% 0.000 in 0.00 W/m2
01:24 67.0 °F 47.0 °F 29.9 in Calm     49% 0.000 in 0.00 W/m2
01:29 66.0 °F 47.0 °F 29.9 in Calm     49% 0.000 in 0.00 W/m2
01:34 66.0 °F 47.0 °F 29.9 in SW 2 mph   49% 0.000 in 0.00 W/m2
01:39 66.0 °F 47.0 °F 29.9 in Calm   2 mph 50% 0.000 in 0.00 W/m2
01:44 66.0 °F 47.0 °F 29.9 in ENE 2 mph 1 mph 50% 0.000 in 0.00 W/m2
01:49 66.0 °F 46.0 °F 29.9 in Calm   2 mph 49% 0.000 in 0.00 W/m2
01:54 66.0 °F 46.0 °F 29.9 in Calm     49% 0.000 in 0.00 W/m2
01:59 66.0 °F 47.0 °F 29.9 in Calm     50% 0.000 in 0.00 W/m2
02:04 66.0 °F 47.0 °F 29.9 in Calm     50% 0.000 in 0.00 W/m2
02:09 66.0 °F 47.0 °F 29.9 in Calm     50% 0.000 in 0.00 W/m2
02:14 66.0 °F 46.0 °F 29.9 in Calm     48% 0.000 in 0.00 W/m2
02:19 66.0 °F 45.0 °F 29.9 in Calm     48% 0.000 in 0.00 W/m2
02:24 66.0 °F 45.0 °F 29.9 in Calm     48% 0.000 in 0.00 W/m2
02:29 66.0 °F 46.0 °F 29.9 in Calm     49% 0.000 in 0.00 W/m2
02:34 66.0 °F 46.0 °F 29.9 in Calm     49% 0.000 in 0.00 W/m2
02:39 65.0 °F 45.0 °F 29.9 in Calm     48% 0.000 in 0.00 W/m2
02:44 65.0 °F 45.0 °F 29.9 in Calm     48% 0.000 in 0.00 W/m2
02:49 65.0 °F 45.0 °F 29.9 in Calm     47% 0.000 in 0.00 W/m2
02:54 65.0 °F 45.0 °F 29.9 in Calm     47% 0.000 in 0.00 W/m2
02:59 65.0 °F 44.0 °F 29.9 in Calm     47% 0.000 in 0.00 W/m2
03:04 65.0 °F 44.0 °F 29.9 in Calm     46% 0.000 in 0.00 W/m2
03:09 65.0 °F 44.0 °F 29.9 in Calm     47% 0.000 in 0.00 W/m2
03:14 65.0 °F 44.0 °F 29.9 in Calm     47% 0.000 in 0.00 W/m2
03:19 65.0 °F 44.0 °F 29.9 in Calm     46% 0.000 in 0.00 W/m2
03:24 65.0 °F 44.0 °F 29.9 in ENE 2 mph   46% 0.000 in 0.00 W/m2
03:29 65.0 °F 43.0 °F 29.9 in ENE 4 mph 2 mph 46% 0.000 in 0.00 W/m2
03:34 65.0 °F 43.0 °F 29.9 in East 6 mph 3 mph 45% 0.000 in 0.00 W/m2
03:39 65.0 °F 43.0 °F 29.9 in East 4 mph 6 mph 45% 0.000 in 0.00 W/m2
03:44 65.0 °F 43.0 °F 29.9 in Calm   3 mph 45% 0.000 in 0.00 W/m2
03:49 65.0 °F 43.0 °F 29.9 in East 2 mph 1 mph 45% 0.000 in 0.00 W/m2
03:54 65.0 °F 42.0 °F 29.9 in Calm   2 mph 44% 0.000 in 0.00 W/m2
03:59 65.0 °F 42.0 °F 29.9 in ESE 4 mph 2 mph 43% 0.000 in 0.00 W/m2
04:04 65.0 °F 41.0 °F 29.9 in East 2 mph 3 mph 41% 0.000 in 0.00 W/m2
04:09 65.0 °F 40.0 °F 29.9 in ENE 6 mph 2 mph 40% 0.000 in 0.00 W/m2
04:14 66.0 °F 39.0 °F 29.9 in ENE 4 mph 6 mph 38% 0.000 in 0.00 W/m2
04:19 66.0 °F 39.0 °F 29.9 in Calm   3 mph 38% 0.000 in 0.00 W/m2
04:24 66.0 °F 39.0 °F 29.9 in Calm     38% 0.000 in 0.00 W/m2
04:29 66.0 °F 39.0 °F 29.9 in ENE 2 mph   38% 0.000 in 0.00 W/m2
04:34 66.0 °F 40.0 °F 29.9 in Calm   2 mph 38% 0.000 in 0.00 W/m2
04:39 66.0 °F 40.0 °F 29.9 in ENE 2 mph   38% 0.000 in 0.00 W/m2
04:44 66.0 °F 39.0 °F 29.9 in Calm   2 mph 37% 0.000 in 0.00 W/m2
04:49 66.0 °F 38.0 °F 29.9 in Calm     36% 0.000 in 0.00 W/m2
04:54 66.0 °F 38.0 °F 29.9 in Calm     36% 0.000 in 0.00 W/m2
04:59 66.0 °F 38.0 °F 29.9 in Calm     36% 0.000 in 0.00 W/m2
05:04 66.0 °F 38.0 °F 29.9 in Calm     36% 0.000 in 0.00 W/m2
05:09 66.0 °F 38.0 °F 29.9 in East 2 mph 2 mph 36% 0.000 in 0.00 W/m2
05:14 66.0 °F 38.0 °F 29.9 in Calm   2 mph 35% 0.000 in 0.00 W/m2
05:19 66.0 °F 39.0 °F 29.9 in ESE 2 mph   37% 0.000 in 0.00 W/m2
05:24 66.0 °F 36.0 °F 29.9 in ESE 2 mph 2 mph 33% 0.000 in 0.00 W/m2
05:29 66.0 °F 37.0 °F 29.9 in Calm   2 mph 34% 0.000 in 0.00 W/m2
05:34 66.0 °F 36.0 °F 29.9 in Calm     33% 0.000 in 0.00 W/m2
05:39 66.0 °F 36.0 °F 29.9 in Calm     33% 0.000 in 0.00 W/m2
05:44 66.0 °F 37.0 °F 29.9 in Calm     34% 0.000 in 0.00 W/m2
05:49 66.0 °F 37.0 °F 29.9 in Calm     34% 0.000 in 0.00 W/m2
05:54 66.0 °F 39.0 °F 29.9 in Calm     37% 0.000 in 5.00 W/m2
05:59 66.0 °F 39.0 °F 29.9 in ESE 2 mph   37% 0.000 in 7.00 W/m2
06:04 66.0 °F 37.0 °F 29.9 in Calm   2 mph 34% 0.000 in 7.00 W/m2
06:09 66.0 °F 38.0 °F 29.9 in ESE 2 mph 1 mph 35% 0.000 in 7.00 W/m2
06:14 66.0 °F 36.0 °F 29.9 in Calm   2 mph 33% 0.000 in 9.00 W/m2
06:19 66.0 °F 37.0 °F 29.9 in ESE 2 mph   34% 0.000 in 9.00 W/m2
06:24 66.0 °F 38.0 °F 29.9 in ESE 2 mph 2 mph 35% 0.000 in 11.00 W/m2
06:29 66.0 °F 38.0 °F 29.9 in ESE 2 mph   35% 0.000 in 11.00 W/m2
06:34 66.0 °F 38.0 °F 29.9 in Calm   2 mph 35% 0.000 in 12.00 W/m2
06:39 66.0 °F 38.0 °F 29.9 in Calm     35% 0.000 in 14.00 W/m2
06:44 66.0 °F 38.0 °F 29.9 in ESE 4 mph 1 mph 35% 0.000 in 14.00 W/m2
06:49 66.0 °F 38.0 °F 29.9 in Calm   3 mph 36% 0.000 in 16.00 W/m2
06:54 66.0 °F 38.0 °F 29.9 in Calm     36% 0.000 in 16.00 W/m2
06:59 66.0 °F 38.0 °F 29.9 in Calm     36% 0.000 in 18.00 W/m2
07:03 66.0 °F 38.0 °F 30.0 in Calm     36% 0.000 in 18.00 W/m2
07:09 66.0 °F 39.0 °F 30.0 in Calm     37% 0.000 in 19.00 W/m2
07:14 66.0 °F 38.0 °F 30.0 in Calm     36% 0.000 in 19.00 W/m2
07:19 66.0 °F 39.0 °F 30.0 in Calm     37% 0.000 in 21.00 W/m2
07:24 66.0 °F 39.0 °F 30.0 in Calm     37% 0.000 in 21.00 W/m2
07:29 66.0 °F 40.0 °F 30.0 in Calm     39% 0.000 in 23.00 W/m2
07:34 66.0 °F 41.0 °F 30.0 in Calm     40% 0.000 in 25.00 W/m2
07:39 66.0 °F 41.0 °F 30.0 in Calm     41% 0.000 in 26.00 W/m2
07:44 66.0 °F 43.0 °F 30.0 in Calm     44% 0.000 in 30.00 W/m2
07:49 66.0 °F 44.0 °F 30.0 in Calm     46% 0.000 in 67.00 W/m2
07:54 66.0 °F 44.0 °F 30.0 in Calm     46% 0.000 in 139.00 W/m2
07:59 66.0 °F 44.0 °F 30.0 in Calm     46% 0.000 in 149.00 W/m2
08:04 66.0 °F 44.0 °F 30.0 in Calm     45% 0.000 in 86.00 W/m2
08:09 66.0 °F 44.0 °F 30.0 in Calm     45% 0.000 in 47.00 W/m2
08:14 67.0 °F 45.0 °F 30.0 in Calm     45% 0.000 in 141.00 W/m2
08:19 67.0 °F 45.0 °F 30.0 in Calm     45% 0.000 in 67.00 W/m2
08:24 68.0 °F 45.0 °F 30.0 in Calm     44% 0.000 in 90.00 W/m2
08:29 69.0 °F 46.0 °F 30.0 in Calm     45% 0.000 in 492.00 W/m2
08:34 69.0 °F 47.0 °F 30.0 in Calm     45% 0.000 in 397.00 W/m2
08:39 70.0 °F 47.0 °F 30.0 in ESE 2 mph   45% 0.000 in 529.00 W/m2
08:44 71.0 °F 47.0 °F 30.0 in ESE 2 mph 2 mph 44% 0.000 in 557.00 W/m2
08:49 72.0 °F 47.0 °F 30.0 in SSW 2 mph 2 mph 43% 0.000 in 577.00 W/m2
08:54 73.0 °F 47.0 °F 30.0 in SW 2 mph 2 mph 41% 0.000 in 592.00 W/m2
08:59 73.0 °F 47.0 °F 30.0 in SSW 4 mph 2 mph 40% 0.000 in 610.00 W/m2
09:04 74.0 °F 46.0 °F 30.0 in West 4 mph 3 mph 37% 0.000 in 624.00 W/m2
09:09 75.0 °F 46.0 °F 30.0 in West 2 mph 3 mph 35% 0.000 in 640.00 W/m2
09:14 76.0 °F 46.0 °F 30.0 in West 2 mph 2 mph 34% 0.000 in 650.00 W/m2
09:19 77.0 °F 46.0 °F 30.0 in WSW 4 mph 2 mph 34% 0.000 in 661.00 W/m2
09:24 78.0 °F 47.0 °F 30.0 in WSW 4 mph 3 mph 34% 0.000 in 677.00 W/m2
09:29 79.0 °F 46.0 °F 30.0 in WSW 2 mph 3 mph 32% 0.000 in 698.00 W/m2
09:34 80.0 °F 46.0 °F 30.0 in West 4 mph 2 mph 31% 0.000 in 714.00 W/m2
09:39 80.0 °F 48.0 °F 30.0 in WSW 4 mph 3 mph 32% 0.000 in 722.00 W/m2
09:44 81.0 °F 48.0 °F 30.0 in West 2 mph 2 mph 32% 0.000 in 740.00 W/m2
09:49 81.0 °F 47.0 °F 30.0 in WSW 2 mph 2 mph 30% 0.000 in 758.00 W/m2
09:54 82.0 °F 47.0 °F 30.0 in SW 4 mph 2 mph 30% 0.000 in 765.00 W/m2
09:59 82.0 °F 47.0 °F 30.0 in SSW 2 mph 3 mph 30% 0.000 in 780.00 W/m2
10:04 83.0 °F 48.0 °F 30.0 in WSW 6 mph 2 mph 30% 0.000 in 791.00 W/m2
10:09 83.0 °F 46.0 °F 30.0 in SW 4 mph 6 mph 28% 0.000 in 805.00 W/m2
10:14 84.0 °F 47.0 °F 30.0 in SW 6 mph 3 mph 28% 0.000 in 816.00 W/m2
10:19 84.0 °F 48.0 °F 30.0 in SW 2 mph 6 mph 29% 0.000 in 826.00 W/m2
10:24 84.0 °F 47.0 °F 30.0 in WSW 4 mph 2 mph 28% 0.000 in 826.00 W/m2
10:29 84.0 °F 48.0 °F 30.0 in South 4 mph 3 mph 28% 0.000 in 844.00 W/m2
10:34 85.0 °F 51.0 °F 30.0 in SW 4 mph 2 mph 31% 0.000 in 856.00 W/m2
10:39 85.0 °F 48.0 °F 30.0 in South 4 mph 3 mph 28% 0.000 in 867.00 W/m2
10:44 85.0 °F 48.0 °F 30.0 in SW 4 mph 3 mph 28% 0.000 in 877.00 W/m2
10:49 86.0 °F 48.0 °F 30.0 in West 2 mph 3 mph 27% 0.000 in 884.00 W/m2
10:53 86.0 °F 48.0 °F 30.0 in West 4 mph 2 mph 27% 0.000 in 895.00 W/m2
10:59 86.0 °F 47.0 °F 30.0 in West 6 mph 3 mph 26% 0.000 in 907.00 W/m2
11:04 87.0 °F 47.0 °F 30.0 in West 11 mph 10 mph 25% 0.000 in 914.00 W/m2
11:09 87.0 °F 49.0 °F 30.0 in SE 2 mph 7 mph 27% 0.000 in 925.00 W/m2
11:14 87.0 °F 49.0 °F 30.0 in South 4 mph 2 mph 27% 0.000 in 930.00 W/m2
11:19 87.0 °F 49.0 °F 30.0 in SW 4 mph 3 mph 27% 0.000 in 939.00 W/m2
11:24 88.0 °F 48.0 °F 30.0 in WSW 2 mph 3 mph 26% 0.000 in 942.00 W/m2
11:29 88.0 °F 50.0 °F 30.0 in WNW 4 mph 2 mph 27% 0.000 in 946.00 W/m2
11:34 89.0 °F 50.0 °F 30.0 in West 6 mph 3 mph 27% 0.000 in 949.00 W/m2
11:39 89.0 °F 50.0 °F 30.0 in NNW 4 mph 6 mph 26% 0.000 in 963.00 W/m2
11:44 89.0 °F 49.0 °F 30.0 in West 6 mph 6 mph 25% 0.000 in 969.00 W/m2
11:49 90.0 °F 49.0 °F 30.0 in SW 5 mph 3 mph 25% 0.000 in 972.00 W/m2
11:54 90.0 °F 49.0 °F 30.0 in West 9 mph 6 mph 25% 0.000 in 979.00 W/m2
11:59 91.0 °F 51.0 °F 30.0 in SSW 4 mph 9 mph 26% 0.000 in 981.00 W/m2
12:04 91.0 °F 50.0 °F 30.0 in WSW 7 mph 7 mph 25% 0.000 in 990.00 W/m2
12:09 91.0 °F 48.0 °F 30.0 in WSW 4 mph 7 mph 23% 0.000 in 986.00 W/m2
12:14 91.0 °F 49.0 °F 30.0 in SSW 7 mph 4 mph 24% 0.000 in 988.00 W/m2
12:19 92.0 °F 50.0 °F 30.0 in SW 6 mph 7 mph 24% 0.000 in 991.00 W/m2
12:24 92.0 °F 49.0 °F 30.0 in WSW 7 mph 6 mph 23% 0.000 in 991.00 W/m2
12:29 92.0 °F 50.0 °F 30.0 in West 4 mph 7 mph 24% 0.000 in 993.00 W/m2
12:34 92.0 °F 48.0 °F 30.0 in WSW 4 mph 3 mph 22% 0.000 in 993.00 W/m2
12:39 93.0 °F 51.0 °F 30.0 in WSW 5 mph 3 mph 24% 0.000 in 997.00 W/m2
12:44 93.0 °F 50.0 °F 29.9 in WNW 6 mph 6 mph 23% 0.000 in 997.00 W/m2
12:49 94.0 °F 50.0 °F 29.9 in NNW 2 mph 2 mph 23% 0.000 in 998.00 W/m2
12:54 94.0 °F 51.0 °F 29.9 in WNW 7 mph 2 mph 23% 0.000 in 990.00 W/m2
12:59 94.0 °F 48.0 °F 29.9 in WSW 7 mph 7 mph 21% 0.000 in 993.00 W/m2
13:04 95.0 °F 48.0 °F 29.9 in WSW 7 mph 7 mph 21% 0.000 in 993.00 W/m2
13:09 95.0 °F 49.0 °F 29.9 in WSW 9 mph 7 mph 21% 0.000 in 993.00 W/m2
13:14 95.0 °F 48.0 °F 29.9 in SW 7 mph 9 mph 20% 0.000 in 990.00 W/m2
13:19 95.0 °F 49.0 °F 29.9 in WSW 4 mph 7 mph 21% 0.000 in 984.00 W/m2
13:24 96.0 °F 51.0 °F 29.9 in South 4 mph 3 mph 22% 0.000 in 984.00 W/m2
13:29 96.0 °F 50.0 °F 29.9 in SW 7 mph 3 mph 21% 0.000 in 981.00 W/m2
13:34 96.0 °F 49.0 °F 29.9 in West 9 mph 7 mph 20% 0.000 in 974.00 W/m2
13:39 96.0 °F 49.0 °F 29.9 in West 7 mph 9 mph 20% 0.000 in 972.00 W/m2
13:44 97.0 °F 50.0 °F 29.9 in WNW 6 mph 6 mph 21% 0.000 in 967.00 W/m2
13:49 97.0 °F 50.0 °F 29.9 in SW 4 mph 6 mph 21% 0.000 in 967.00 W/m2
13:54 97.0 °F 48.0 °F 29.9 in West 4 mph 3 mph 19% 0.000 in 958.00 W/m2
13:59 97.0 °F 49.0 °F 29.9 in SW 13 mph 8 mph 20% 0.000 in 956.00 W/m2
14:04 97.0 °F 48.0 °F 29.9 in SSW 6 mph 13 mph 19% 0.000 in 944.00 W/m2
14:09 97.0 °F 48.0 °F 29.9 in SW 9 mph 6 mph 19% 0.000 in 939.00 W/m2
14:14 97.0 °F 45.0 °F 29.9 in SW 9 mph 9 mph 17% 0.000 in 933.00 W/m2
14:19 97.0 °F 48.0 °F 29.9 in West 11 mph 9 mph 19% 0.000 in 926.00 W/m2
14:24 97.0 °F 47.0 °F 29.9 in SW 13 mph 13 mph 18% 0.000 in 921.00 W/m2
14:29 97.0 °F 51.0 °F 29.9 in West 9 mph 10 mph 21% 0.000 in 909.00 W/m2
14:34 98.0 °F 51.0 °F 29.9 in North 2 mph 9 mph 21% 0.000 in 898.00 W/m2
14:39 98.0 °F 50.0 °F 29.9 in NNE 2 mph 2 mph 20% 0.000 in 889.00 W/m2
14:44 99.0 °F 51.0 °F 29.9 in SW 7 mph 3 mph 20% 0.000 in 884.00 W/m2
14:49 99.0 °F 51.0 °F 29.9 in SW 7 mph 7 mph 20% 0.000 in 874.00 W/m2
14:54 100.0 °F 50.0 °F 29.9 in WSW 4 mph 2 mph 19% 0.000 in 868.00 W/m2
14:59 100.0 °F 49.0 °F 29.9 in WSW 6 mph 3 mph 18% 0.000 in 860.00 W/m2
15:04 100.0 °F 50.0 °F 29.9 in SSW 11 mph 8 mph 19% 0.000 in 844.00 W/m2
15:09 100.0 °F 50.0 °F 29.9 in SW 5 mph 10 mph 19% 0.000 in 833.00 W/m2
15:14 101.0 °F 48.0 °F 29.9 in WSW 6 mph 6 mph 17% 0.000 in 823.00 W/m2
15:19 101.0 °F 49.0 °F 29.9 in WSW 4 mph 3 mph 18% 0.000 in 814.00 W/m2
15:24 101.0 °F 48.0 °F 29.9 in SW 11 mph 7 mph 17% 0.000 in 803.00 W/m2
15:29 101.0 °F 50.0 °F 29.9 in SW 6 mph 10 mph 18% 0.000 in 786.00 W/m2
15:34 101.0 °F 51.0 °F 29.9 in West 6 mph 6 mph 19% 0.000 in 779.00 W/m2
15:39 101.0 °F 47.0 °F 29.9 in SW 2 mph 2 mph 16% 0.000 in 763.00 W/m2
15:44 101.0 °F 50.0 °F 29.9 in SSW 2 mph 2 mph 18% 0.000 in 745.00 W/m2
15:49 102.0 °F 49.0 °F 29.9 in WSW 5 mph 2 mph 17% 0.000 in 737.00 W/m2
15:54 102.0 °F 49.0 °F 29.9 in WSW 11 mph 8 mph 17% 0.000 in 726.00 W/m2
15:59 101.0 °F 50.0 °F 29.9 in SW 2 mph 10 mph 18% 0.000 in 705.00 W/m2
16:04 102.0 °F 52.0 °F 29.9 in WNW 4 mph 2 mph 19% 0.000 in 698.00 W/m2
16:09 102.0 °F 52.0 °F 29.9 in WSW 9 mph 5 mph 19% 0.000 in 687.00 W/m2
16:14 102.0 °F 47.0 °F 29.9 in West 11 mph 9 mph 16% 0.000 in 679.00 W/m2
16:19 102.0 °F 47.0 °F 29.9 in WSW 2 mph 10 mph 16% 0.000 in 661.00 W/m2
16:24 102.0 °F 47.0 °F 29.9 in WSW 9 mph 7 mph 16% 0.000 in 647.00 W/m2
16:29 102.0 °F 45.0 °F 29.9 in SW 16 mph 9 mph 15% 0.000 in 629.00 W/m2
16:34 101.0 °F 45.0 °F 29.9 in WSW 16 mph 16 mph 15% 0.000 in 612.00 W/m2
16:39 101.0 °F 48.0 °F 29.9 in West 11 mph 16 mph 17% 0.000 in 591.00 W/m2
16:44 101.0 °F 48.0 °F 29.9 in WSW 6 mph 10 mph 17% 0.000 in 582.00 W/m2
16:49 101.0 °F 47.0 °F 29.9 in WSW 7 mph 6 mph 16% 0.000 in 570.00 W/m2
16:54 101.0 °F 47.0 °F 29.9 in WNW 4 mph 7 mph 16% 0.000 in 552.00 W/m2
16:59 101.0 °F 50.0 °F 29.9 in WSW 7 mph 3 mph 18% 0.000 in 538.00 W/m2
17:04 101.0 °F 48.0 °F 29.9 in SSW 4 mph 7 mph 17% 0.000 in 527.00 W/m2
17:09 102.0 °F 47.0 °F 29.9 in SSW 4 mph 3 mph 16% 0.000 in 512.00 W/m2
17:14 102.0 °F 47.0 °F 29.9 in WSW 5 mph 3 mph 16% 0.000 in 494.00 W/m2
17:19 102.0 °F 44.0 °F 29.9 in South 6 mph 6 mph 14% 0.000 in 476.00 W/m2
17:24 102.0 °F 44.0 °F 29.9 in SW 6 mph 5 mph 14% 0.000 in 462.00 W/m2
17:29 101.0 °F 43.0 °F 29.9 in SSW 11 mph 7 mph 14% 0.000 in 438.00 W/m2
17:34 101.0 °F 43.0 °F 29.9 in SSW 6 mph 10 mph 14% 0.000 in 422.00 W/m2
17:37 101.0 °F 41.0 °F 29.9 in WNW 9 mph 6 mph 13% 0.000 in 408.00 W/m2
17:44 101.0 °F 41.0 °F 29.9 in WSW 4 mph 9 mph 13% 0.000 in 387.00 W/m2
17:49 101.0 °F 47.0 °F 29.9 in West 1 mph 3 mph 16% 0.000 in 350.00 W/m2
17:54 101.0 °F 48.0 °F 29.9 in WSW 7 mph 4 mph 17% 0.000 in 248.00 W/m2
17:59 100.0 °F 46.0 °F 29.9 in West 2 mph 7 mph 16% 0.000 in 165.00 W/m2
18:04 100.0 °F 49.0 °F 29.9 in SSE 2 mph 2 mph 18% 0.000 in 62.00 W/m2
18:09 99.0 °F 45.0 °F 29.9 in SSW 4 mph 2 mph 16% 0.000 in 54.00 W/m2
18:14 99.0 °F 45.0 °F 29.9 in NNE 6 mph 3 mph 16% 0.000 in 51.00 W/m2
18:19 98.0 °F 47.0 °F 29.9 in NNE 2 mph 6 mph 18% 0.000 in 47.00 W/m2
18:24 98.0 °F 45.0 °F 29.9 in North 2 mph 2 mph 17% 0.000 in 46.00 W/m2
18:29 97.0 °F 45.0 °F 29.9 in WNW 2 mph 2 mph 17% 0.000 in 42.00 W/m2
18:34 96.0 °F 50.0 °F 29.9 in WNW 2 mph 2 mph 21% 0.000 in 39.00 W/m2
18:38 96.0 °F 47.0 °F 29.9 in WNW 2 mph 2 mph 19% 0.000 in 56.00 W/m2
El Dorado Weather
Compliments of Weather Underground - 2 mb